Time;durP1;ratioP1;P1;durP2;ratioP2;P2;SDS_P1;SDS_P2;PMS_P1;PMS_P2;Temp;Humidity;BMP_temperature;BMP_pressure;BME280_temperature;BME280_humidity;BME280_pressure;Samples;Min_cycle;Max_cycle;Signal;HPM_P1;HPM_P2
2024/02/29 00:04:10;;;;;;;1999.90;999.90;;;;;;;5.23;100.00;101552.34;10218015;29;20047;-68
2024/02/29 00:09:12;;;;;;;1999.90;999.90;;;;;;;5.08;100.00;101537.97;10200344;29;20119;-68
2024/02/29 00:14:15;;;;;;;1999.90;999.90;;;;;;;5.10;100.00;101535.34;10216990;29;20407;-68
2024/02/29 00:19:17;;;;;;;1999.90;999.90;;;;;;;5.02;100.00;101536.34;10217355;29;20047;-68
2024/02/29 00:24:20;;;;;;;1999.90;999.90;;;;;;;5.08;100.00;101517.19;10217242;29;20059;-68
2024/02/29 00:29:26;;;;;;;1999.90;999.90;;;;;;;5.26;100.00;101513.31;10216391;29;20476;-68
2024/02/29 00:34:29;;;;;;;1999.90;999.90;;;;;;;5.14;100.00;101517.03;10215708;29;20059;-68
2024/02/29 00:39:31;;;;;;;1999.90;999.90;;;;;;;5.10;100.00;101499.84;10216364;29;20143;-68
2024/02/29 00:44:33;;;;;;;1999.90;999.90;;;;;;;5.16;100.00;101496.22;10215312;29;20052;-68
2024/02/29 00:49:36;;;;;;;1999.90;999.90;;;;;;;5.15;100.00;101497.97;10199366;29;20460;-68
2024/02/29 00:54:38;;;;;;;1999.90;999.90;;;;;;;5.08;100.00;101482.56;10215498;29;20495;-68
2024/02/29 00:59:41;;;;;;;1999.90;999.90;;;;;;;5.11;100.00;101477.31;10215237;29;20052;-68
2024/02/29 01:04:43;;;;;;;1999.90;999.90;;;;;;;5.14;100.00;101478.09;10199154;29;20134;-68
2024/02/29 01:09:45;;;;;;;1999.90;999.90;;;;;;;5.11;100.00;101473.00;10198757;29;20062;-68
2024/02/29 01:14:48;;;;;;;1999.90;999.90;;;;;;;5.16;100.00;101465.06;10215940;29;20051;-68
2024/02/29 01:19:50;;;;;;;1999.90;999.90;;;;;;;5.29;100.00;101460.44;10215245;29;20058;-68
2024/02/29 01:24:53;;;;;;;1999.90;999.90;;;;;;;5.31;100.00;101445.69;10214116;29;20086;-68
2024/02/29 01:29:55;;;;;;;1999.90;999.90;;;;;;;5.36;100.00;101452.47;10215108;29;20043;-68
2024/02/29 01:34:59;;;;;;;1999.90;999.90;;;;;;;5.38;99.70;101439.47;10213784;29;20055;-68
2024/02/29 01:40:01;;;;;;;1999.90;999.90;;;;;;;5.36;99.92;101433.44;10214220;29;20052;-68
2024/02/29 01:45:04;;;;;;;1999.90;999.90;;;;;;;5.53;97.80;101420.88;10212963;29;20094;-68
2024/02/29 01:50:08;;;;;;;1999.90;999.90;;;;;;;5.65;97.92;101416.22;10213362;29;20052;-68
2024/02/29 01:55:11;;;;;;;1999.90;999.90;;;;;;;5.42;98.37;101412.50;10213932;29;20431;-68
2024/02/29 02:00:14;;;;;;;1999.90;999.90;;;;;;;5.41;98.74;101403.00;10212619;29;20484;-68
2024/02/29 02:05:16;;;;;;;1999.90;999.90;;;;;;;5.34;97.96;101391.91;10213807;29;20048;-68
2024/02/29 02:10:19;;;;;;;1999.90;999.90;;;;;;;5.31;98.73;101392.03;10212514;29;20083;-68
2024/02/29 02:15:21;;;;;;;1999.90;999.90;;;;;;;5.23;97.82;101380.97;10213072;29;20086;-68
2024/02/29 02:20:24;;;;;;;1999.90;999.90;;;;;;;5.39;98.59;101371.88;10212874;29;20047;-68
2024/02/29 02:25:26;;;;;;;1999.90;999.90;;;;;;;5.29;98.07;101360.03;10221665;29;20055;-68
2024/02/29 02:30:29;;;;;;;1999.90;999.90;;;;;;;5.32;98.69;101356.50;10220612;29;20056;-68
2024/02/29 02:35:34;;;;;;;1999.90;999.90;;;;;;;5.38;99.49;101351.16;10219559;29;20116;-68
2024/02/29 02:40:36;;;;;;;1999.90;999.90;;;;;;;5.38;98.78;101346.81;10220720;29;20088;-68
2024/02/29 02:45:39;;;;;;;1999.90;999.90;;;;;;;5.51;99.68;101336.94;10219200;29;20498;-68
2024/02/29 02:50:42;;;;;;;1999.90;999.90;;;;;;;5.65;99.45;101326.16;10203298;29;20456;-68
2024/02/29 02:55:44;;;;;;;1999.90;999.90;;;;;;;5.47;99.83;101316.28;10219322;29;20555;-68
2024/02/29 03:00:46;;;;;;;1999.90;999.90;;;;;;;5.53;100.00;101305.72;10220357;29;20051;-69
2024/02/29 03:05:49;;;;;;;1999.90;999.90;;;;;;;5.58;100.00;101302.13;10220227;29;20090;-68
2024/02/29 03:10:51;;;;;;;1999.90;999.90;;;;;;;5.66;100.00;101288.88;10218351;29;20057;-68
2024/02/29 03:15:53;;;;;;;1999.90;999.90;;;;;;;5.44;100.00;101280.03;10218789;29;20060;-68
2024/02/29 03:20:56;;;;;;;1999.90;999.90;;;;;;;5.57;100.00;101276.19;10219444;29;20439;-68
2024/02/29 03:25:58;;;;;;;1999.90;999.90;;;;;;;5.67;100.00;101261.19;10219810;29;20134;-68
2024/02/29 03:31:01;;;;;;;1999.90;999.90;;;;;;;5.88;100.00;101257.06;10217526;29;20554;-68
2024/02/29 03:36:03;;;;;;;1999.90;999.90;;;;;;;5.75;100.00;101251.41;10218033;29;20061;-69
2024/02/29 03:41:06;;;;;;;1999.90;999.90;;;;;;;5.83;100.00;101238.19;10218410;29;20115;-68
2024/02/29 03:46:09;;;;;;;1999.90;999.90;;;;;;;5.77;100.00;101247.84;10217600;29;20083;-69
2024/02/29 03:51:12;;;;;;;1999.90;999.90;;;;;;;5.71;100.00;101229.00;10217925;29;20047;-68
2024/02/29 03:56:15;;;;;;;1999.90;999.90;;;;;;;5.73;100.00;101227.19;10218412;29;20052;-68
2024/02/29 04:01:18;;;;;;;1999.90;999.90;;;;;;;5.70;100.00;101224.69;10218211;29;20047;-68
2024/02/29 04:06:20;;;;;;;1999.90;999.90;;;;;;;5.71;100.00;101229.00;10201181;29;20052;-69
2024/02/29 04:11:22;;;;;;;1999.90;999.90;;;;;;;5.65;100.00;101226.59;10217108;29;20147;-68
2024/02/29 04:16:25;;;;;;;1999.90;999.90;;;;;;;5.60;100.00;101211.16;10216477;29;20051;-68
2024/02/29 04:21:28;;;;;;;1999.90;999.90;;;;;;;5.62;100.00;101211.97;10217359;29;20054;-68
2024/02/29 04:26:30;;;;;;;1999.90;999.90;;;;;;;5.68;100.00;101205.72;10217128;29;20062;-68
2024/02/29 04:31:32;;;;;;;1999.90;999.90;;;;;;;5.83;100.00;101188.81;10199509;29;20410;-68
2024/02/29 04:36:35;;;;;;;1999.90;999.90;;;;;;;5.84;100.00;101185.31;10215045;29;20411;-68
2024/02/29 04:41:37;;;;;;;1999.90;999.90;;;;;;;5.86;100.00;101181.75;10216095;29;20493;-69
2024/02/29 04:46:40;;;;;;;1999.90;999.90;;;;;;;5.81;100.00;101177.63;10215543;29;20056;-68
2024/02/29 04:51:42;;;;;;;1999.90;999.90;;;;;;;5.94;100.00;101168.53;10214525;29;20431;-68
2024/02/29 04:56:44;;;;;;;1999.90;999.90;;;;;;;5.99;100.00;101171.88;10216116;29;20052;-68
2024/02/29 05:01:47;;;;;;;1999.90;999.90;;;;;;;5.99;100.00;101171.03;10214586;29;20123;-68
2024/02/29 05:06:49;;;;;;;1999.90;999.90;;;;;;;5.92;100.00;101163.38;10214702;29;20087;-68
2024/02/29 05:11:53;;;;;;;1999.90;999.90;;;;;;;5.99;100.00;101155.44;10198296;29;20487;-69
2024/02/29 05:16:56;;;;;;;1999.90;999.90;;;;;;;6.18;100.00;101143.50;10213662;29;20087;-69
2024/02/29 05:21:58;;;;;;;1999.90;999.90;;;;;;;5.99;100.00;101134.63;10213873;29;20052;-68
2024/02/29 05:27:01;;;;;;;1999.90;999.90;;;;;;;5.89;100.00;101136.66;10214031;29;20055;-68
2024/02/29 05:32:03;;;;;;;1999.90;999.90;;;;;;;6.12;100.00;101134.16;10215045;29;20051;-68
2024/02/29 05:37:05;;;;;;;1999.90;999.90;;;;;;;5.94;100.00;101139.94;10214939;29;20056;-69
2024/02/29 05:42:09;;;;;;;1999.90;999.90;;;;;;;5.78;100.00;101136.97;10214531;29;20062;-68
2024/02/29 05:47:11;;;;;;;1999.90;999.90;;;;;;;5.86;100.00;101136.75;10212960;29;20099;-68
2024/02/29 05:52:14;;;;;;;1999.90;999.90;;;;;;;5.91;100.00;101130.47;10213970;29;20051;-68
2024/02/29 05:57:16;;;;;;;1999.90;999.90;;;;;;;5.92;100.00;101120.97;10217025;29;20090;-68
2024/02/29 06:02:18;;;;;;;1999.90;999.90;;;;;;;5.97;100.00;101110.41;10222523;29;20054;-68
2024/02/29 06:07:21;;;;;;;1999.90;999.90;;;;;;;6.01;100.00;101112.03;10222461;29;20048;-68
2024/02/29 06:12:23;;;;;;;1999.90;999.90;;;;;;;6.03;100.00;101108.47;10222237;29;20048;-68
2024/02/29 06:17:26;;;;;;;1999.90;999.90;;;;;;;6.18;100.00;101104.50;10222023;29;20058;-68
2024/02/29 06:22:28;;;;;;;1999.90;999.90;;;;;;;6.33;100.00;101103.13;10220628;29;20050;-68
2024/02/29 06:27:30;;;;;;;1999.90;999.90;;;;;;;6.33;100.00;101090.97;10221012;29;20048;-68
2024/02/29 06:32:33;;;;;;;1999.90;999.90;;;;;;;6.24;100.00;101090.47;10203948;29;20491;-68
2024/02/29 06:37:35;;;;;;;1999.90;999.90;;;;;;;6.32;100.00;101093.63;10220167;29;20086;-68
2024/02/29 06:42:38;;;;;;;1999.90;999.90;;;;;;;6.16;100.00;101084.66;10219554;29;20052;-67
2024/02/29 06:47:40;;;;;;;1999.90;999.90;;;;;;;6.22;100.00;101090.50;10220975;29;20048;-67
2024/02/29 06:52:43;;;;;;;1999.90;999.90;;;;;;;6.15;100.00;101089.00;10219673;29;20063;-67
2024/02/29 06:57:47;;;;;;;1999.90;999.90;;;;;;;6.36;100.00;101081.38;10220018;29;20079;-67
2024/02/29 07:02:49;;;;;;;1999.90;999.90;;;;;;;6.38;100.00;101083.00;10219882;29;20043;-67
2024/02/29 07:07:52;;;;;;;1999.90;999.90;;;;;;;6.50;100.00;101077.34;10220066;29;20055;-67
2024/02/29 07:12:55;;;;;;;1999.90;999.90;;;;;;;6.42;100.00;101083.75;10218937;29;20045;-67
2024/02/29 07:17:57;;;;;;;1999.90;999.90;;;;;;;6.45;100.00;101078.44;10219849;29;20062;-67
2024/02/29 07:23:02;;;;;;;1999.90;999.90;;;;;;;6.60;100.00;101083.09;10219559;29;20056;-67
2024/02/29 07:28:06;;;;;;;1999.90;999.90;;;;;;;6.76;100.00;101072.97;10219559;29;20058;-67
2024/02/29 07:33:08;;;;;;;1999.90;999.90;;;;;;;6.82;100.00;101062.31;10202937;29;20087;-67
2024/02/29 07:38:10;;;;;;;1999.90;999.90;;;;;;;6.78;100.00;101076.38;10218455;29;20052;-67
2024/02/29 07:43:13;;;;;;;1999.90;999.90;;;;;;;7.09;100.00;101062.19;10218886;29;20079;-67
2024/02/29 07:48:15;;;;;;;1999.90;999.90;;;;;;;7.11;100.00;101062.13;10218115;29;20100;-67
2024/02/29 07:53:18;;;;;;;1999.90;999.90;;;;;;;7.02;100.00;101055.53;10217993;29;20384;-67
2024/02/29 07:58:20;;;;;;;1999.90;999.90;;;;;;;6.95;100.00;101056.69;10218215;29;20115;-67
2024/02/29 08:03:24;;;;;;;1999.90;999.90;;;;;;;7.15;100.00;101059.34;10217808;29;20055;-67
2024/02/29 08:08:26;;;;;;;1999.90;999.90;;;;;;;7.39;100.00;101054.09;10217336;29;20090;-67
2024/02/29 08:13:29;;;;;;;1999.90;999.90;;;;;;;7.02;100.00;101043.34;10216191;29;20047;-68
2024/02/29 08:18:33;;;;;;;1999.90;999.90;;;;;;;7.19;100.00;101044.44;10200404;29;20051;-67
2024/02/29 08:23:35;;;;;;;1999.90;999.90;;;;;;;7.23;100.00;101049.50;10216986;29;20403;-67
2024/02/29 08:28:38;;;;;;;1999.90;999.90;;;;;;;7.28;100.00;101036.28;10217176;29;20055;-67
2024/02/29 08:33:41;;;;;;;1999.90;999.90;;;;;;;7.33;100.00;101033.47;10216977;29;20062;-67
2024/02/29 08:38:43;;;;;;;1999.90;999.90;;;;;;;7.40;100.00;101027.13;10215780;29;20060;-68
2024/02/29 08:43:45;;;;;;;1999.90;999.90;;;;;;;7.32;100.00;101026.59;10217096;29;20048;-67
2024/02/29 08:48:48;;;;;;;1999.90;999.90;;;;;;;7.59;100.00;101006.38;10215296;29;20058;-67
2024/02/29 08:53:50;;;;;;;1999.90;999.90;;;;;;;7.76;100.00;101019.53;10216316;29;20051;-67
2024/02/29 08:58:52;;;;;;;1999.90;999.90;;;;;;;7.80;100.00;101007.22;10216104;29;20079;-67
2024/02/29 09:03:55;;;;;;;1999.90;999.90;;;;;;;7.80;100.00;101007.22;10215988;29;20052;-68
2024/02/29 09:08:57;;;;;;;1999.90;999.90;;;;;;;7.88;100.00;101002.53;10215946;29;20056;-67
2024/02/29 09:14:00;;;;;;;1999.90;999.90;;;;;;;8.14;100.00;100993.59;10215010;29;20418;-68
2024/02/29 09:19:02;;;;;;;1999.90;999.90;;;;;;;8.29;100.00;100986.00;10214812;29;20407;-68
2024/02/29 09:24:05;;;;;;;1999.90;999.90;;;;;;;8.47;100.00;100971.28;10215256;29;20047;-68
2024/02/29 09:29:08;;;;;;;1999.90;999.90;;;;;;;8.58;100.00;100970.81;10214017;29;20067;-68
2024/02/29 09:34:10;;;;;;;1999.90;999.90;;;;;;;8.73;100.00;100963.09;10214202;29;20064;-68
2024/02/29 09:39:13;;;;;;;1999.90;999.90;;;;;;;8.50;100.00;100955.50;10213385;29;20063;-68
2024/02/29 09:44:16;;;;;;;1999.90;999.90;;;;;;;8.70;100.00;100952.81;10214227;29;20484;-68
2024/02/29 09:49:19;;;;;;;1999.90;999.90;;;;;;;8.63;100.00;100947.97;10213583;29;20058;-68
2024/02/29 09:54:22;;;;;;;1999.90;999.90;;;;;;;8.60;100.00;100935.06;10227567;23;20107;-66
2024/02/29 09:59:25;;;;;;;1999.90;999.90;;;;;;;8.74;100.00;100932.63;10214501;29;20055;-66
2024/02/29 10:04:27;;;;;;;1999.90;999.90;;;;;;;8.83;100.00;100939.19;10212730;29;20407;-66
2024/02/29 10:09:30;;;;;;;1999.90;999.90;;;;;;;8.98;100.00;100938.44;10213814;29;20051;-66
2024/02/29 10:14:32;;;;;;;1999.90;999.90;;;;;;;8.77;100.00;100940.31;10212699;29;20060;-67
2024/02/29 10:19:38;;;;;;;1999.90;999.90;;;;;;;8.84;100.00;100931.28;10212557;29;20058;-66
2024/02/29 10:24:41;;;;;;;1999.90;999.90;;;;;;;8.87;100.00;100918.06;10213570;29;20204;-67
2024/02/29 10:29:44;;;;;;;1999.90;999.90;;;;;;;8.95;100.00;100919.47;10214078;29;20048;-66
2024/02/29 10:34:46;;;;;;;1999.90;999.90;;;;;;;8.77;100.00;100915.97;10212642;29;20130;-66
2024/02/29 10:39:50;;;;;;;1999.90;999.90;;;;;;;8.73;100.00;100910.91;10212018;29;20130;-67
2024/02/29 10:44:53;;;;;;;1999.90;999.90;;;;;;;8.90;100.00;100909.25;10217728;29;20461;-67
2024/02/29 10:50:04;;;;;;;1999.90;999.90;;;;;;;8.90;99.79;100917.09;10219176;29;20411;-67
2024/02/29 10:55:12;;;;;;;1999.90;999.90;;;;;;;9.24;100.00;100916.25;10219567;29;20147;-67
2024/02/29 11:00:14;;;;;;;1999.90;999.90;;;;;;;9.01;99.03;100903.50;10219441;29;20059;-67
2024/02/29 11:05:17;;;;;;;1999.90;999.90;;;;;;;9.08;97.85;100897.91;10220390;29;20131;-67
2024/02/29 11:10:20;;;;;;;1999.90;999.90;;;;;;;9.13;100.00;100897.69;10219094;29;20043;-67
2024/02/29 11:15:27;;;;;;;1999.90;999.90;;;;;;;9.16;100.00;100894.88;10218916;29;20139;-67
2024/02/29 11:20:29;;;;;;;1999.90;999.90;;;;;;;9.38;99.21;100886.84;10218005;29;20119;-67
2024/02/29 11:25:34;;;;;;;1999.90;999.90;;;;;;;9.26;97.85;100887.44;10219854;29;20056;-67
2024/02/29 11:30:37;;;;;;;1999.90;999.90;;;;;;;9.85;97.42;100864.34;10218818;29;20189;-67
2024/02/29 11:35:39;;;;;;;1999.90;999.90;;;;;;;9.63;97.28;100867.25;10219270;29;20157;-67
2024/02/29 11:40:41;;;;;;;1999.90;999.90;;;;;;;9.64;96.70;100854.09;10217863;29;20062;-66
2024/02/29 11:45:44;;;;;;;1999.90;999.90;;;;;;;9.85;95.60;100848.66;10217192;29;20132;-67
2024/02/29 11:50:46;;;;;;;1999.90;999.90;;;;;;;9.89;96.32;100847.59;10216977;29;20567;-67
2024/02/29 11:55:49;;;;;;;1999.90;999.90;;;;;;;9.79;98.04;100839.38;10217220;29;20060;-67
2024/02/29 12:01:04;;;;;;;1999.90;999.90;;;;;;;9.98;100.00;100831.38;10217674;29;20510;-67
2024/02/29 12:06:07;;;;;;;1999.90;999.90;;;;;;;10.05;100.00;100831.88;10217569;29;20052;-67
2024/02/29 12:11:09;;;;;;;1999.90;999.90;;;;;;;9.84;100.00;100826.91;10216791;29;20055;-67
2024/02/29 12:16:11;;;;;;;1999.90;999.90;;;;;;;10.02;99.53;100824.25;10216612;29;20087;-67
2024/02/29 12:21:14;;;;;;;1999.90;999.90;;;;;;;9.95;100.00;100817.63;10215836;29;20055;-67
2024/02/29 12:26:16;;;;;;;1999.90;999.90;;;;;;;9.82;100.00;100801.78;10215530;29;20411;-67
2024/02/29 12:31:19;;;;;;;1999.90;999.90;;;;;;;10.22;100.00;100797.81;10216555;29;20122;-67
2024/02/29 12:36:24;;;;;;;1999.90;999.90;;;;;;;10.12;100.00;100795.78;10215824;29;20051;-67
2024/02/29 12:41:27;;;;;;;1999.90;999.90;;;;;;;10.36;100.00;100786.59;10216550;29;20483;-67
2024/02/29 12:46:29;;;;;;;1999.90;999.90;;;;;;;10.24;100.00;100795.13;10215419;29;20054;-67
2024/02/29 12:51:31;;;;;;;1999.90;999.90;;;;;;;10.27;100.00;100792.34;10216411;29;20054;-67
2024/02/29 12:56:37;;;;;;;1999.90;999.90;;;;;;;10.10;100.00;100781.94;10215579;29;20204;-67
2024/02/29 13:01:39;;;;;;;1999.90;999.90;;;;;;;9.91;100.00;100777.72;10216373;29;20134;-67
2024/02/29 13:06:42;;;;;;;1999.90;999.90;;;;;;;10.06;100.00;100762.13;10215477;29;20111;-67
2024/02/29 13:11:44;;;;;;;1999.90;999.90;;;;;;;9.84;100.00;100758.91;10216194;29;20098;-67
2024/02/29 13:16:47;;;;;;;1999.90;999.90;;;;;;;9.78;100.00;100754.00;10215775;29;20059;-66
2024/02/29 13:21:49;;;;;;;1999.90;999.90;;;;;;;9.87;100.00;100750.06;10214465;29;20384;-68
2024/02/29 13:26:51;;;;;;;1999.90;999.90;;;;;;;10.20;100.00;100739.50;10213480;29;20092;-67
2024/02/29 13:31:56;;;;;;;1999.90;999.90;;;;;;;10.60;100.00;100733.75;10214548;29;20502;-67
2024/02/29 13:36:58;;;;;;;1999.90;999.90;;;;;;;10.06;100.00;100723.72;10215071;29;20058;-67
2024/02/29 13:42:05;;;;;;;1999.90;999.90;;;;;;;10.05;100.00;100716.78;10214234;29;20059;-67
2024/02/29 13:47:07;;;;;;;1999.90;999.90;;;;;;;9.88;100.00;100704.66;10214689;29;20407;-69
2024/02/29 13:52:16;;;;;;;1999.90;999.90;;;;;;;9.98;100.00;100699.78;10214814;29;20054;-68
2024/02/29 13:57:19;;;;;;;1999.90;999.90;;;;;;;9.97;100.00;100696.31;10214462;29;20131;-69
2024/02/29 14:02:21;;;;;;;1999.90;999.90;;;;;;;9.67;100.00;100673.56;10212679;29;20402;-69
2024/02/29 14:07:23;;;;;;;1999.90;999.90;;;;;;;10.00;100.00;100664.78;10213750;29;20055;-68
2024/02/29 14:12:27;;;;;;;1999.90;999.90;;;;;;;10.01;100.00;100660.38;10213240;29;20131;-67
2024/02/29 14:17:29;;;;;;;1999.90;999.90;;;;;;;10.00;100.00;100670.00;10215917;29;20079;-66
2024/02/29 14:22:32;;;;;;;1999.90;999.90;;;;;;;9.94;100.00;100651.19;10221956;29;20048;-66
2024/02/29 14:27:34;;;;;;;1999.90;999.90;;;;;;;9.94;100.00;100638.94;10221672;29;20154;-67
2024/02/29 14:32:38;;;;;;;1999.90;999.90;;;;;;;10.20;100.00;100626.13;10221092;29;20052;-67
2024/02/29 14:37:41;;;;;;;1999.90;999.90;;;;;;;10.12;100.00;100625.72;10221454;29;20135;-67
2024/02/29 14:42:43;;;;;;;1999.90;999.90;;;;;;;9.94;100.00;100615.41;10221092;29;20488;-67
2024/02/29 14:47:45;;;;;;;1999.90;999.90;;;;;;;9.59;100.00;100620.03;10220386;29;20056;-67
2024/02/29 14:52:48;;;;;;;1999.90;999.90;;;;;;;9.57;100.00;100611.44;10220147;29;20055;-67
2024/02/29 14:57:51;;;;;;;1999.90;999.90;;;;;;;9.86;100.00;100600.16;10220766;29;20078;-67
2024/02/29 15:02:53;;;;;;;1999.90;999.90;;;;;;;9.39;100.00;100595.84;10220450;29;20058;-67
2024/02/29 15:07:57;;;;;;;1999.90;999.90;;;;;;;9.49;100.00;100594.41;10219742;29;20411;-67
2024/02/29 15:12:59;;;;;;;1999.90;999.90;;;;;;;9.69;100.00;100576.75;10219612;29;20404;-67
2024/02/29 15:18:03;;;;;;;1999.90;999.90;;;;;;;9.86;100.00;100570.56;10220000;29;20055;-67
2024/02/29 15:23:05;;;;;;;1999.90;999.90;;;;;;;9.46;100.00;100565.00;10219735;29;20048;-67
2024/02/29 15:28:10;;;;;;;1999.90;999.90;;;;;;;9.72;100.00;100566.13;10217770;29;20490;-67
2024/02/29 15:33:12;;;;;;;1999.90;999.90;;;;;;;9.59;100.00;100558.13;10219506;29;20447;-67
2024/02/29 15:38:18;;;;;;;1999.90;999.90;;;;;;;9.73;100.00;100553.91;10218622;29;20418;-67
2024/02/29 15:43:20;;;;;;;1999.90;999.90;;;;;;;9.21;100.00;100542.00;10217901;29;20047;-67
2024/02/29 15:48:23;;;;;;;1999.90;999.90;;;;;;;9.63;100.00;100532.66;10218852;29;20111;-67
2024/02/29 15:53:25;;;;;;;1999.90;999.90;;;;;;;9.34;100.00;100537.78;10218466;29;20059;-67
2024/02/29 15:58:28;;;;;;;1999.90;999.90;;;;;;;9.60;100.00;100522.38;10216733;29;20059;-67
2024/02/29 16:03:30;;;;;;;1999.90;999.90;;;;;;;9.45;100.00;100518.91;10217689;29;20055;-67
2024/02/29 16:08:32;;;;;;;1999.90;999.90;;;;;;;9.13;100.00;100521.56;10217477;29;20642;-67
2024/02/29 16:13:35;;;;;;;1999.90;999.90;;;;;;;9.25;100.00;100512.19;10217328;29;20056;-67
2024/02/29 16:18:37;;;;;;;1999.90;999.90;;;;;;;9.57;100.00;100506.91;10217099;29;20078;-67
2024/02/29 16:23:40;;;;;;;1999.90;999.90;;;;;;;9.36;100.00;100507.19;10217473;29;20047;-67
2024/02/29 16:28:42;;;;;;;1999.90;999.90;;;;;;;9.21;100.00;100506.31;10216138;29;20140;-67
2024/02/29 16:33:44;;;;;;;1999.90;999.90;;;;;;;9.30;100.00;100494.47;10216025;29;20054;-67
2024/02/29 16:38:47;;;;;;;1999.90;999.90;;;;;;;9.42;100.00;100483.31;10217472;29;20130;-67
2024/02/29 16:43:49;;;;;;;1999.90;999.90;;;;;;;9.16;100.00;100483.97;10216239;29;20054;-67
2024/02/29 16:48:53;;;;;;;1999.90;999.90;;;;;;;9.04;100.00;100488.09;10215417;29;20107;-67
2024/02/29 16:53:56;;;;;;;1999.90;999.90;;;;;;;9.15;100.00;100490.13;10215977;29;20103;-67
2024/02/29 16:58:58;;;;;;;1999.90;999.90;;;;;;;9.19;100.00;100478.56;10216199;29;20047;-67
2024/02/29 17:04:01;;;;;;;1999.90;999.90;;;;;;;9.09;100.00;100473.00;10214177;29;20480;-67
2024/02/29 17:09:04;;;;;;;1999.90;999.90;;;;;;;9.06;100.00;100471.44;10215876;29;20060;-67
2024/02/29 17:14:07;;;;;;;1999.90;999.90;;;;;;;9.14;100.00;100468.38;10214541;29;20052;-67
2024/02/29 17:19:10;;;;;;;1999.90;999.90;;;;;;;9.06;100.00;100470.56;10213704;29;20488;-67
2024/02/29 17:24:12;;;;;;;1999.90;999.90;;;;;;;9.08;100.00;100466.13;10214170;29;20054;-67
2024/02/29 17:29:15;;;;;;;1999.90;999.90;;;;;;;9.25;100.00;100466.00;10215812;29;20131;-67
2024/02/29 17:34:17;;;;;;;1999.90;999.90;;;;;;;9.21;100.00;100459.28;10215038;29;20048;-67
2024/02/29 17:39:20;;;;;;;1999.90;999.90;;;;;;;9.13;100.00;100452.78;10214462;29;20487;-67
2024/02/29 17:44:22;;;;;;;1999.90;999.90;;;;;;;9.27;100.00;100451.06;10214003;29;20126;-67
2024/02/29 17:49:24;;;;;;;1999.90;999.90;;;;;;;9.02;100.00;100446.41;10213791;29;20403;-67
2024/02/29 17:54:27;;;;;;;1999.90;999.90;;;;;;;8.84;100.00;100448.31;10213552;29;20064;-67
2024/02/29 17:59:29;;;;;;;1999.90;999.90;;;;;;;9.04;100.00;100448.94;10213592;29;20086;-67
2024/02/29 18:04:32;;;;;;;1999.90;999.90;;;;;;;8.93;100.00;100432.09;10214008;29;20389;-67
2024/02/29 18:09:34;;;;;;;1999.90;999.90;;;;;;;9.21;100.00;100427.94;10212711;29;20555;-67
2024/02/29 18:14:37;;;;;;;1999.90;999.90;;;;;;;9.22;100.00;100415.72;10214794;29;20047;-67
2024/02/29 18:19:39;;;;;;;1999.90;999.90;;;;;;;9.26;100.00;100414.59;10213071;29;20047;-67
2024/02/29 18:24:41;;;;;;;1999.90;999.90;;;;;;;8.89;100.00;100412.34;10212935;29;20079;-67
2024/02/29 18:29:45;;;;;;;1999.90;999.90;;;;;;;9.22;100.00;100413.94;10212352;29;20056;-67
2024/02/29 18:34:47;;;;;;;1999.90;999.90;;;;;;;9.09;100.00;100413.81;10213912;29;20048;-67
2024/02/29 18:39:50;;;;;;;1999.90;999.90;;;;;;;9.06;100.00;100406.16;10214309;29;20110;-67
2024/02/29 18:44:52;;;;;;;1999.90;999.90;;;;;;;9.21;100.00;100400.94;10211851;29;20107;-67
2024/02/29 18:49:57;;;;;;;1999.90;999.90;;;;;;;9.09;100.00;100386.84;10213765;29;20488;-67
2024/02/29 18:55:00;;;;;;;1999.90;999.90;;;;;;;8.89;100.00;100393.19;10213489;29;20135;-67
2024/02/29 19:00:03;;;;;;;1999.90;999.90;;;;;;;8.96;100.00;100391.06;10213520;29;20067;-67
2024/02/29 19:05:06;;;;;;;1999.90;999.90;;;;;;;9.02;100.00;100378.50;10215422;29;20083;-67
2024/02/29 19:10:13;;;;;;;1999.90;999.90;;;;;;;8.95;100.00;100377.19;10220286;29;20067;-67
2024/02/29 19:15:15;;;;;;;1999.90;999.90;;;;;;;8.77;100.00;100373.00;10220234;29;20071;-67
2024/02/29 19:20:18;;;;;;;1999.90;999.90;;;;;;;8.91;100.00;100378.31;10220013;29;20052;-67
2024/02/29 19:25:20;;;;;;;1999.90;999.90;;;;;;;8.97;100.00;100372.72;10220054;29;20051;-67
2024/02/29 19:30:22;;;;;;;1999.90;999.90;;;;;;;8.85;100.00;100373.44;10218480;29;20048;-67
2024/02/29 19:35:27;;;;;;;1999.90;999.90;;;;;;;9.13;100.00;100370.06;10219846;29;20052;-67
2024/02/29 19:40:30;;;;;;;1999.90;999.90;;;;;;;8.82;100.00;100347.50;10219769;29;20138;-67
2024/02/29 19:45:34;;;;;;;1999.90;999.90;;;;;;;9.07;100.00;100352.13;10218976;29;20052;-67
2024/02/29 19:50:37;;;;;;;1999.90;999.90;;;;;;;8.89;100.00;100344.44;10218341;29;20044;-67
2024/02/29 19:55:41;;;;;;;1999.90;999.90;;;;;;;9.01;100.00;100345.50;10218351;29;20056;-67
2024/02/29 20:00:46;;;;;;;1999.90;999.90;;;;;;;8.86;100.00;100342.00;10217787;29;20538;-67
2024/02/29 20:05:49;;;;;;;1999.90;999.90;;;;;;;9.05;100.00;100336.56;10217516;29;20496;-67
2024/02/29 20:10:52;;;;;;;1999.90;999.90;;;;;;;8.85;100.00;100340.31;10216961;29;20052;-67
2024/02/29 20:15:54;;;;;;;1999.90;999.90;;;;;;;8.82;100.00;100332.66;10217119;29;20134;-67
2024/02/29 20:20:57;;;;;;;1999.90;999.90;;;;;;;8.84;100.00;100320.38;10216979;29;20052;-67
2024/02/29 20:26:00;;;;;;;1999.90;999.90;;;;;;;8.86;100.00;100339.41;10216445;29;20134;-67
2024/02/29 20:31:04;;;;;;;1999.90;999.90;;;;;;;9.04;100.00;100339.25;10217140;29;20403;-66
2024/02/29 20:36:07;;;;;;;1999.90;999.90;;;;;;;8.80;100.00;100326.69;10217209;29;20058;-66
2024/02/29 20:41:09;;;;;;;1999.90;999.90;;;;;;;8.87;100.00;100325.41;10216222;29;20488;-66
2024/02/29 20:46:15;;;;;;;1999.90;999.90;;;;;;;8.86;100.00;100320.25;10215550;29;20058;-67
2024/02/29 20:51:17;;;;;;;1999.90;999.90;;;;;;;8.98;100.00;100316.97;10215392;29;20058;-66
2024/02/29 20:56:19;;;;;;;1999.90;999.90;;;;;;;8.83;100.00;100310.03;10215738;29;20056;-67
2024/02/29 21:01:22;;;;;;;1999.90;999.90;;;;;;;8.99;100.00;100310.78;10216086;29;20051;-66
2024/02/29 21:06:24;;;;;;;1999.90;999.90;;;;;;;9.13;100.00;100307.41;10216009;29;20067;-64
2024/02/29 21:11:27;;;;;;;1999.90;999.90;;;;;;;9.14;100.00;100300.38;10216037;29;20052;-64
2024/02/29 21:16:31;;;;;;;1999.90;999.90;;;;;;;8.86;100.00;100288.94;10214838;29;20047;-64
2024/02/29 21:21:33;;;;;;;1999.90;999.90;;;;;;;8.68;100.00;100285.66;10214900;29;20056;-64
2024/02/29 21:26:36;;;;;;;1999.90;999.90;;;;;;;8.73;100.00;100273.16;10215328;29;20061;-64
2024/02/29 21:31:38;;;;;;;1999.90;999.90;;;;;;;8.82;100.00;100267.41;10213499;29;20415;-64
2024/02/29 21:36:41;;;;;;;1999.90;999.90;;;;;;;8.78;100.00;100265.91;10214555;29;20136;-64
2024/02/29 21:41:44;;;;;;;1999.90;999.90;;;;;;;8.69;100.00;100249.03;10198841;29;20134;-64
2024/02/29 21:46:46;;;;;;;1999.90;999.90;;;;;;;8.43;100.00;100258.34;10214219;29;20194;-64
2024/02/29 21:51:49;;;;;;;1999.90;999.90;;;;;;;8.81;100.00;100246.59;10214085;29;20406;-64
2024/02/29 21:56:52;;;;;;;1999.90;999.90;;;;;;;8.46;100.00;100236.47;10213204;29;20111;-64